sensor_id;sensor_type;location;lat;lon;timestamp;temperature;humidity
16532;DHT22;8378;57.698;11.958;2022-08-05T00:00:31;27.20;99.90
16532;DHT22;8378;57.698;11.958;2022-08-05T00:02:56;27.20;99.90
16532;DHT22;8378;57.698;11.958;2022-08-05T00:05:22;27.20;99.90
16532;DHT22;8378;57.698;11.958;2022-08-05T00:07:48;27.20;99.90
16532;DHT22;8378;57.698;11.958;2022-08-05T00:10:13;27.20;99.90
16532;DHT22;8378;57.698;11.958;2022-08-05T00:12:39;27.20;99.90
16532;DHT22;8378;57.698;11.958;2022-08-05T00:15:05;27.20;99.90
16532;DHT22;8378;57.698;11.958;2022-08-05T00:17:31;27.20;99.90
16532;DHT22;8378;57.698;11.958;2022-08-05T00:19:57;27.20;99.90
16532;DHT22;8378;57.698;11.958;2022-08-05T00:22:22;27.20;99.90
16532;DHT22;8378;57.698;11.958;2022-08-05T00:24:48;27.20;99.90
16532;DHT22;8378;57.698;11.958;2022-08-05T00:27:13;27.20;99.90
16532;DHT22;8378;57.698;11.958;2022-08-05T00:29:39;27.20;99.90
16532;DHT22;8378;57.698;11.958;2022-08-05T00:32:05;27.20;99.90
16532;DHT22;8378;57.698;11.958;2022-08-05T00:34:31;27.20;99.90
16532;DHT22;8378;57.698;11.958;2022-08-05T00:36:57;27.20;99.90
16532;DHT22;8378;57.698;11.958;2022-08-05T00:39:23;27.20;99.90
16532;DHT22;8378;57.698;11.958;2022-08-05T00:41:48;27.20;99.90
16532;DHT22;8378;57.698;11.958;2022-08-05T00:44:14;27.20;99.90
16532;DHT22;8378;57.698;11.958;2022-08-05T00:46:39;27.20;99.90
16532;DHT22;8378;57.698;11.958;2022-08-05T00:49:05;27.20;99.90
16532;DHT22;8378;57.698;11.958;2022-08-05T00:51:31;27.20;99.90
16532;DHT22;8378;57.698;11.958;2022-08-05T00:53:56;27.20;99.90
16532;DHT22;8378;57.698;11.958;2022-08-05T00:56:22;27.20;99.90
16532;DHT22;8378;57.698;11.958;2022-08-05T00:58:47;27.20;99.90
16532;DHT22;8378;57.698;11.958;2022-08-05T01:01:13;27.20;99.90
16532;DHT22;8378;57.698;11.958;2022-08-05T01:03:42;27.20;99.90
16532;DHT22;8378;57.698;11.958;2022-08-05T01:06:09;27.20;99.90
16532;DHT22;8378;57.698;11.958;2022-08-05T01:08:35;27.20;99.90
16532;DHT22;8378;57.698;11.958;2022-08-05T01:11:29;27.20;99.90
16532;DHT22;8378;57.698;11.958;2022-08-05T01:14:10;27.20;99.90
16532;DHT22;8378;57.698;11.958;2022-08-05T01:17:01;27.20;99.90
16532;DHT22;8378;57.698;11.958;2022-08-05T01:27:24;27.10;99.90
16532;DHT22;8378;57.698;11.958;2022-08-05T01:29:56;27.10;99.90
16532;DHT22;8378;57.698;11.958;2022-08-05T01:32:26;27.10;99.90
16532;DHT22;8378;57.698;11.958;2022-08-05T01:35:14;27.10;99.90
16532;DHT22;8378;57.698;11.958;2022-08-05T01:37:43;27.10;99.90
16532;DHT22;8378;57.698;11.958;2022-08-05T01:40:10;27.10;99.90
16532;DHT22;8378;57.698;11.958;2022-08-05T01:42:37;27.10;99.90
16532;DHT22;8378;57.698;11.958;2022-08-05T01:45:05;27.10;99.90
16532;DHT22;8378;57.698;11.958;2022-08-05T01:47:33;27.10;99.90
16532;DHT22;8378;57.698;11.958;2022-08-05T01:50:04;27.10;99.90
16532;DHT22;8378;57.698;11.958;2022-08-05T01:52:33;27.10;99.90
16532;DHT22;8378;57.698;11.958;2022-08-05T01:55:07;27.10;99.90
16532;DHT22;8378;57.698;11.958;2022-08-05T01:57:37;27.10;99.90
16532;DHT22;8378;57.698;11.958;2022-08-05T02:00:06;27.10;99.90
16532;DHT22;8378;57.698;11.958;2022-08-05T02:02:37;27.00;99.90
16532;DHT22;8378;57.698;11.958;2022-08-05T02:05:06;27.10;99.90
16532;DHT22;8378;57.698;11.958;2022-08-05T02:07:35;27.00;99.90
16532;DHT22;8378;57.698;11.958;2022-08-05T02:10:03;27.00;99.90
16532;DHT22;8378;57.698;11.958;2022-08-05T02:12:52;27.00;99.90
16532;DHT22;8378;57.698;11.958;2022-08-05T02:15:27;27.00;99.90
16532;DHT22;8378;57.698;11.958;2022-08-05T02:18:01;27.00;99.90
16532;DHT22;8378;57.698;11.958;2022-08-05T02:20:32;27.00;99.90
16532;DHT22;8378;57.698;11.958;2022-08-05T02:23:03;27.00;99.90
16532;DHT22;8378;57.698;11.958;2022-08-05T02:25:33;27.00;99.90
16532;DHT22;8378;57.698;11.958;2022-08-05T02:28:01;27.00;99.90
16532;DHT22;8378;57.698;11.958;2022-08-05T02:30:31;27.00;99.90
16532;DHT22;8378;57.698;11.958;2022-08-05T02:33:01;27.00;99.90
16532;DHT22;8378;57.698;11.958;2022-08-05T02:35:28;27.00;99.90
16532;DHT22;8378;57.698;11.958;2022-08-05T02:37:56;27.00;99.90
16532;DHT22;8378;57.698;11.958;2022-08-05T02:40:23;27.00;99.90
16532;DHT22;8378;57.698;11.958;2022-08-05T02:42:50;27.00;99.90
16532;DHT22;8378;57.698;11.958;2022-08-05T02:45:18;27.00;99.90
16532;DHT22;8378;57.698;11.958;2022-08-05T02:47:45;27.00;99.90
16532;DHT22;8378;57.698;11.958;2022-08-05T02:50:12;27.00;99.90
16532;DHT22;8378;57.698;11.958;2022-08-05T02:52:40;26.90;99.90
16532;DHT22;8378;57.698;11.958;2022-08-05T02:55:07;26.90;99.90
16532;DHT22;8378;57.698;11.958;2022-08-05T02:57:34;26.90;99.90
16532;DHT22;8378;57.698;11.958;2022-08-05T03:00:00;26.90;99.90
16532;DHT22;8378;57.698;11.958;2022-08-05T03:02:28;26.90;99.90
16532;DHT22;8378;57.698;11.958;2022-08-05T03:04:57;27.00;99.90
16532;DHT22;8378;57.698;11.958;2022-08-05T03:07:25;27.00;99.90
16532;DHT22;8378;57.698;11.958;2022-08-05T03:09:51;26.90;99.90
16532;DHT22;8378;57.698;11.958;2022-08-05T03:12:29;26.90;99.90
16532;DHT22;8378;57.698;11.958;2022-08-05T03:14:55;26.90;99.90
16532;DHT22;8378;57.698;11.958;2022-08-05T03:17:21;27.00;99.90
16532;DHT22;8378;57.698;11.958;2022-08-05T03:19:46;26.90;99.90
16532;DHT22;8378;57.698;11.958;2022-08-05T03:22:12;26.90;99.90
16532;DHT22;8378;57.698;11.958;2022-08-05T03:24:39;26.90;99.90
16532;DHT22;8378;57.698;11.958;2022-08-05T03:27:05;26.90;99.90
16532;DHT22;8378;57.698;11.958;2022-08-05T03:29:31;26.90;99.90
16532;DHT22;8378;57.698;11.958;2022-08-05T03:31:56;26.90;99.90
16532;DHT22;8378;57.698;11.958;2022-08-05T03:34:22;26.90;99.90
16532;DHT22;8378;57.698;11.958;2022-08-05T03:36:48;26.90;99.90
16532;DHT22;8378;57.698;11.958;2022-08-05T03:39:13;26.80;99.90
16532;DHT22;8378;57.698;11.958;2022-08-05T03:41:39;26.90;99.90
16532;DHT22;8378;57.698;11.958;2022-08-05T03:44:05;26.90;99.90
16532;DHT22;8378;57.698;11.958;2022-08-05T03:46:30;26.80;99.90
16532;DHT22;8378;57.698;11.958;2022-08-05T03:48:57;26.80;99.90
16532;DHT22;8378;57.698;11.958;2022-08-05T03:51:28;26.80;99.90
16532;DHT22;8378;57.698;11.958;2022-08-05T03:56:25;26.90;99.90
16532;DHT22;8378;57.698;11.958;2022-08-05T03:58:55;26.80;99.90
16532;DHT22;8378;57.698;11.958;2022-08-05T04:01:21;26.90;99.90
16532;DHT22;8378;57.698;11.958;2022-08-05T04:03:49;26.80;99.90
16532;DHT22;8378;57.698;11.958;2022-08-05T04:06:15;26.80;99.90
16532;DHT22;8378;57.698;11.958;2022-08-05T04:08:42;26.80;99.90
16532;DHT22;8378;57.698;11.958;2022-08-05T04:11:08;26.80;99.90
16532;DHT22;8378;57.698;11.958;2022-08-05T04:13:38;26.80;99.90
16532;DHT22;8378;57.698;11.958;2022-08-05T04:16:06;26.80;99.90
16532;DHT22;8378;57.698;11.958;2022-08-05T04:18:33;26.80;99.90
16532;DHT22;8378;57.698;11.958;2022-08-05T04:20:59;26.80;99.90
16532;DHT22;8378;57.698;11.958;2022-08-05T04:23:26;26.80;99.90
16532;DHT22;8378;57.698;11.958;2022-08-05T04:25:52;26.80;99.90
16532;DHT22;8378;57.698;11.958;2022-08-05T04:28:18;26.80;99.90
16532;DHT22;8378;57.698;11.958;2022-08-05T04:30:45;26.80;99.90
16532;DHT22;8378;57.698;11.958;2022-08-05T04:33:11;26.80;99.90
16532;DHT22;8378;57.698;11.958;2022-08-05T04:35:37;26.80;99.90
16532;DHT22;8378;57.698;11.958;2022-08-05T04:38:03;26.80;99.90
16532;DHT22;8378;57.698;11.958;2022-08-05T04:40:32;26.80;99.90
16532;DHT22;8378;57.698;11.958;2022-08-05T04:42:58;26.80;99.90
16532;DHT22;8378;57.698;11.958;2022-08-05T04:45:24;26.80;99.90
16532;DHT22;8378;57.698;11.958;2022-08-05T04:47:50;26.80;99.90
16532;DHT22;8378;57.698;11.958;2022-08-05T04:50:16;26.80;99.90
16532;DHT22;8378;57.698;11.958;2022-08-05T04:52:42;26.80;99.90
16532;DHT22;8378;57.698;11.958;2022-08-05T04:55:08;26.80;99.90
16532;DHT22;8378;57.698;11.958;2022-08-05T04:57:33;26.80;99.90
16532;DHT22;8378;57.698;11.958;2022-08-05T04:59:59;26.80;99.90
16532;DHT22;8378;57.698;11.958;2022-08-05T05:02:25;26.80;99.90
16532;DHT22;8378;57.698;11.958;2022-08-05T05:04:51;26.80;99.90
16532;DHT22;8378;57.698;11.958;2022-08-05T05:07:17;26.80;99.90
16532;DHT22;8378;57.698;11.958;2022-08-05T05:09:43;26.80;99.90
16532;DHT22;8378;57.698;11.958;2022-08-05T05:12:09;26.80;99.90
16532;DHT22;8378;57.698;11.958;2022-08-05T05:14:34;26.80;99.90
16532;DHT22;8378;57.698;11.958;2022-08-05T05:17:00;26.80;99.90
16532;DHT22;8378;57.698;11.958;2022-08-05T05:19:26;26.80;99.90
16532;DHT22;8378;57.698;11.958;2022-08-05T05:21:51;26.80;99.90
16532;DHT22;8378;57.698;11.958;2022-08-05T05:24:17;26.80;99.90
16532;DHT22;8378;57.698;11.958;2022-08-05T05:26:46;26.80;99.90
16532;DHT22;8378;57.698;11.958;2022-08-05T05:29:11;26.80;99.90
16532;DHT22;8378;57.698;11.958;2022-08-05T05:31:37;26.70;99.90
16532;DHT22;8378;57.698;11.958;2022-08-05T05:34:03;26.80;99.90
16532;DHT22;8378;57.698;11.958;2022-08-05T05:36:29;26.70;99.90
16532;DHT22;8378;57.698;11.958;2022-08-05T05:38:55;26.70;99.90
16532;DHT22;8378;57.698;11.958;2022-08-05T05:41:21;26.70;99.90
16532;DHT22;8378;57.698;11.958;2022-08-05T05:43:47;26.70;99.90
16532;DHT22;8378;57.698;11.958;2022-08-05T05:46:12;26.80;99.90
16532;DHT22;8378;57.698;11.958;2022-08-05T05:48:38;26.70;99.90
16532;DHT22;8378;57.698;11.958;2022-08-05T05:51:06;26.80;99.90
16532;DHT22;8378;57.698;11.958;2022-08-05T05:53:32;26.70;99.90
16532;DHT22;8378;57.698;11.958;2022-08-05T05:55:58;26.80;99.90
16532;DHT22;8378;57.698;11.958;2022-08-05T05:58:24;26.70;99.90
16532;DHT22;8378;57.698;11.958;2022-08-05T06:00:49;26.70;99.90
16532;DHT22;8378;57.698;11.958;2022-08-05T06:03:15;26.70;99.90
16532;DHT22;8378;57.698;11.958;2022-08-05T06:05:40;26.70;99.90
16532;DHT22;8378;57.698;11.958;2022-08-05T06:08:06;26.70;99.90
16532;DHT22;8378;57.698;11.958;2022-08-05T06:10:32;26.70;99.90
16532;DHT22;8378;57.698;11.958;2022-08-05T06:12:58;26.80;99.90
16532;DHT22;8378;57.698;11.958;2022-08-05T06:15:24;26.70;99.90
16532;DHT22;8378;57.698;11.958;2022-08-05T06:17:50;26.80;99.90
16532;DHT22;8378;57.698;11.958;2022-08-05T06:20:15;26.80;99.90
16532;DHT22;8378;57.698;11.958;2022-08-05T06:22:41;26.70;99.90
16532;DHT22;8378;57.698;11.958;2022-08-05T06:25:07;26.80;99.90
16532;DHT22;8378;57.698;11.958;2022-08-05T06:27:33;26.70;99.90
16532;DHT22;8378;57.698;11.958;2022-08-05T06:29:59;26.70;99.90
16532;DHT22;8378;57.698;11.958;2022-08-05T06:32:25;26.70;99.90
16532;DHT22;8378;57.698;11.958;2022-08-05T06:34:50;26.70;99.90
16532;DHT22;8378;57.698;11.958;2022-08-05T06:37:17;26.70;99.90
16532;DHT22;8378;57.698;11.958;2022-08-05T06:39:42;26.70;99.90
16532;DHT22;8378;57.698;11.958;2022-08-05T06:42:08;26.70;99.90
16532;DHT22;8378;57.698;11.958;2022-08-05T06:44:33;26.70;99.90
16532;DHT22;8378;57.698;11.958;2022-08-05T06:46:59;26.70;99.90
16532;DHT22;8378;57.698;11.958;2022-08-05T06:49:25;26.70;99.90
16532;DHT22;8378;57.698;11.958;2022-08-05T06:51:51;26.70;99.90
16532;DHT22;8378;57.698;11.958;2022-08-05T06:54:17;26.70;99.90
16532;DHT22;8378;57.698;11.958;2022-08-05T06:56:42;26.70;99.90
16532;DHT22;8378;57.698;11.958;2022-08-05T06:59:08;26.70;99.90
16532;DHT22;8378;57.698;11.958;2022-08-05T07:01:34;26.70;99.90
16532;DHT22;8378;57.698;11.958;2022-08-05T07:04:00;26.70;99.90
16532;DHT22;8378;57.698;11.958;2022-08-05T07:06:26;26.70;99.90
16532;DHT22;8378;57.698;11.958;2022-08-05T07:08:51;26.70;99.90
16532;DHT22;8378;57.698;11.958;2022-08-05T07:11:17;26.70;99.90
16532;DHT22;8378;57.698;11.958;2022-08-05T07:13:44;26.70;99.90
16532;DHT22;8378;57.698;11.958;2022-08-05T07:16:28;26.70;99.90
16532;DHT22;8378;57.698;11.958;2022-08-05T07:19:12;26.70;99.90
16532;DHT22;8378;57.698;11.958;2022-08-05T07:21:38;26.70;99.90
16532;DHT22;8378;57.698;11.958;2022-08-05T07:24:04;26.70;99.90
16532;DHT22;8378;57.698;11.958;2022-08-05T07:26:30;26.70;99.90
16532;DHT22;8378;57.698;11.958;2022-08-05T07:28:55;26.70;99.90
16532;DHT22;8378;57.698;11.958;2022-08-05T07:31:21;26.70;99.90
16532;DHT22;8378;57.698;11.958;2022-08-05T07:33:47;26.70;99.90
16532;DHT22;8378;57.698;11.958;2022-08-05T07:36:12;26.70;99.90
16532;DHT22;8378;57.698;11.958;2022-08-05T07:38:39;26.70;99.90
16532;DHT22;8378;57.698;11.958;2022-08-05T07:41:07;26.70;99.90
16532;DHT22;8378;57.698;11.958;2022-08-05T07:43:33;26.70;99.90
16532;DHT22;8378;57.698;11.958;2022-08-05T07:45:59;26.70;99.90
16532;DHT22;8378;57.698;11.958;2022-08-05T07:48:25;26.70;99.90
16532;DHT22;8378;57.698;11.958;2022-08-05T07:50:50;26.80;99.90
16532;DHT22;8378;57.698;11.958;2022-08-05T07:53:16;26.70;99.90
16532;DHT22;8378;57.698;11.958;2022-08-05T07:55:42;26.70;99.90
16532;DHT22;8378;57.698;11.958;2022-08-05T07:58:07;26.80;99.90
16532;DHT22;8378;57.698;11.958;2022-08-05T08:00:33;26.80;99.90
16532;DHT22;8378;57.698;11.958;2022-08-05T08:02:59;26.80;99.90
16532;DHT22;8378;57.698;11.958;2022-08-05T08:05:24;26.80;99.90
16532;DHT22;8378;57.698;11.958;2022-08-05T08:07:52;26.80;99.90
16532;DHT22;8378;57.698;11.958;2022-08-05T08:10:23;26.80;99.90
16532;DHT22;8378;57.698;11.958;2022-08-05T08:12:49;26.80;99.90
16532;DHT22;8378;57.698;11.958;2022-08-05T08:15:15;26.80;99.90
16532;DHT22;8378;57.698;11.958;2022-08-05T08:17:41;26.80;99.90
16532;DHT22;8378;57.698;11.958;2022-08-05T08:20:07;26.80;99.90
16532;DHT22;8378;57.698;11.958;2022-08-05T08:22:33;26.80;99.90
16532;DHT22;8378;57.698;11.958;2022-08-05T08:24:59;26.80;99.90
16532;DHT22;8378;57.698;11.958;2022-08-05T08:27:24;26.80;99.90
16532;DHT22;8378;57.698;11.958;2022-08-05T08:29:50;26.80;99.90
16532;DHT22;8378;57.698;11.958;2022-08-05T08:32:16;26.80;99.90
16532;DHT22;8378;57.698;11.958;2022-08-05T08:34:42;26.90;99.90
16532;DHT22;8378;57.698;11.958;2022-08-05T08:37:08;26.90;99.90
16532;DHT22;8378;57.698;11.958;2022-08-05T08:39:33;26.90;99.90
16532;DHT22;8378;57.698;11.958;2022-08-05T08:42:00;26.90;99.90
16532;DHT22;8378;57.698;11.958;2022-08-05T08:44:30;26.90;99.90
16532;DHT22;8378;57.698;11.958;2022-08-05T08:46:56;26.90;99.90
16532;DHT22;8378;57.698;11.958;2022-08-05T08:49:23;26.90;99.90
16532;DHT22;8378;57.698;11.958;2022-08-05T08:51:56;26.90;99.90
16532;DHT22;8378;57.698;11.958;2022-08-05T08:54:23;26.90;99.90
16532;DHT22;8378;57.698;11.958;2022-08-05T08:56:49;27.00;99.90
16532;DHT22;8378;57.698;11.958;2022-08-05T08:59:18;27.00;99.90
16532;DHT22;8378;57.698;11.958;2022-08-05T09:01:44;26.90;99.90
16532;DHT22;8378;57.698;11.958;2022-08-05T09:04:10;26.90;99.90
16532;DHT22;8378;57.698;11.958;2022-08-05T09:06:37;27.00;99.90
16532;DHT22;8378;57.698;11.958;2022-08-05T09:09:03;27.00;99.90
16532;DHT22;8378;57.698;11.958;2022-08-05T09:11:32;27.00;99.90
16532;DHT22;8378;57.698;11.958;2022-08-05T09:13:58;27.00;99.90
16532;DHT22;8378;57.698;11.958;2022-08-05T09:16:25;27.00;99.90
16532;DHT22;8378;57.698;11.958;2022-08-05T09:18:51;27.00;99.90
16532;DHT22;8378;57.698;11.958;2022-08-05T09:21:18;27.00;99.90
16532;DHT22;8378;57.698;11.958;2022-08-05T09:23:44;27.00;99.90
16532;DHT22;8378;57.698;11.958;2022-08-05T09:26:12;27.00;99.90
16532;DHT22;8378;57.698;11.958;2022-08-05T09:28:41;27.10;99.90
16532;DHT22;8378;57.698;11.958;2022-08-05T09:31:12;27.10;99.90
16532;DHT22;8378;57.698;11.958;2022-08-05T09:36:13;27.10;99.90
16532;DHT22;8378;57.698;11.958;2022-08-05T09:38:55;27.10;99.90
16532;DHT22;8378;57.698;11.958;2022-08-05T09:41:21;27.10;99.90
16532;DHT22;8378;57.698;11.958;2022-08-05T09:43:46;27.10;99.90
16532;DHT22;8378;57.698;11.958;2022-08-05T09:46:32;27.10;99.90
16532;DHT22;8378;57.698;11.958;2022-08-05T09:49:00;27.10;99.90
16532;DHT22;8378;57.698;11.958;2022-08-05T09:51:35;27.10;99.90
16532;DHT22;8378;57.698;11.958;2022-08-05T09:54:03;27.10;99.90
16532;DHT22;8378;57.698;11.958;2022-08-05T09:56:32;27.10;99.90
16532;DHT22;8378;57.698;11.958;2022-08-05T09:59:00;27.10;99.90
16532;DHT22;8378;57.698;11.958;2022-08-05T10:01:26;27.10;99.90
16532;DHT22;8378;57.698;11.958;2022-08-05T10:03:57;27.10;99.90
16532;DHT22;8378;57.698;11.958;2022-08-05T10:06:25;27.10;99.90
16532;DHT22;8378;57.698;11.958;2022-08-05T10:08:51;27.10;99.90
16532;DHT22;8378;57.698;11.958;2022-08-05T10:11:17;27.10;99.90
16532;DHT22;8378;57.698;11.958;2022-08-05T10:13:43;27.10;99.90
16532;DHT22;8378;57.698;11.958;2022-08-05T10:16:33;27.10;99.90
16532;DHT22;8378;57.698;11.958;2022-08-05T10:18:59;27.10;99.90
16532;DHT22;8378;57.698;11.958;2022-08-05T10:21:25;27.10;99.90
16532;DHT22;8378;57.698;11.958;2022-08-05T10:23:52;27.10;99.90
16532;DHT22;8378;57.698;11.958;2022-08-05T10:26:18;27.10;99.90
16532;DHT22;8378;57.698;11.958;2022-08-05T10:28:46;27.10;99.90
16532;DHT22;8378;57.698;11.958;2022-08-05T10:31:13;27.10;99.90
16532;DHT22;8378;57.698;11.958;2022-08-05T10:33:40;27.10;99.90
16532;DHT22;8378;57.698;11.958;2022-08-05T10:36:06;27.10;99.90
16532;DHT22;8378;57.698;11.958;2022-08-05T10:38:34;27.10;99.90
16532;DHT22;8378;57.698;11.958;2022-08-05T10:41:22;27.10;99.90
16532;DHT22;8378;57.698;11.958;2022-08-05T10:44:04;27.10;99.90
16532;DHT22;8378;57.698;11.958;2022-08-05T10:46:54;27.10;99.90
16532;DHT22;8378;57.698;11.958;2022-08-05T10:49:22;27.10;99.90
16532;DHT22;8378;57.698;11.958;2022-08-05T10:51:52;27.10;99.90
16532;DHT22;8378;57.698;11.958;2022-08-05T10:54:23;27.20;99.90
16532;DHT22;8378;57.698;11.958;2022-08-05T10:56:51;27.20;99.90
16532;DHT22;8378;57.698;11.958;2022-08-05T10:59:28;27.20;99.90
16532;DHT22;8378;57.698;11.958;2022-08-05T11:02:12;27.20;99.90
16532;DHT22;8378;57.698;11.958;2022-08-05T11:04:42;27.20;99.90
16532;DHT22;8378;57.698;11.958;2022-08-05T11:07:08;27.20;99.90
16532;DHT22;8378;57.698;11.958;2022-08-05T11:09:45;27.30;99.90
16532;DHT22;8378;57.698;11.958;2022-08-05T11:12:41;27.20;99.90
16532;DHT22;8378;57.698;11.958;2022-08-05T11:17:44;27.30;99.90
16532;DHT22;8378;57.698;11.958;2022-08-05T11:20:39;27.30;99.90
16532;DHT22;8378;57.698;11.958;2022-08-05T11:26:10;27.30;99.90
16532;DHT22;8378;57.698;11.958;2022-08-05T11:28:37;27.30;99.90
16532;DHT22;8378;57.698;11.958;2022-08-05T11:36:07;27.40;99.90
16532;DHT22;8378;57.698;11.958;2022-08-05T11:41:15;27.40;99.90
16532;DHT22;8378;57.698;11.958;2022-08-05T11:43:56;27.40;99.90
16532;DHT22;8378;57.698;11.958;2022-08-05T11:46:30;27.40;99.90
16532;DHT22;8378;57.698;11.958;2022-08-05T11:48:56;27.50;99.90
16532;DHT22;8378;57.698;11.958;2022-08-05T11:51:23;27.50;99.90
16532;DHT22;8378;57.698;11.958;2022-08-05T11:53:50;27.50;99.90
16532;DHT22;8378;57.698;11.958;2022-08-05T11:56:16;27.60;99.90
16532;DHT22;8378;57.698;11.958;2022-08-05T11:58:44;27.50;99.90
16532;DHT22;8378;57.698;11.958;2022-08-05T12:01:18;27.50;99.90
16532;DHT22;8378;57.698;11.958;2022-08-05T12:03:44;27.60;99.90
16532;DHT22;8378;57.698;11.958;2022-08-05T12:06:12;27.60;99.90
16532;DHT22;8378;57.698;11.958;2022-08-05T12:08:47;27.60;99.90
16532;DHT22;8378;57.698;11.958;2022-08-05T12:11:19;27.60;99.90
16532;DHT22;8378;57.698;11.958;2022-08-05T12:14:04;27.60;99.90
16532;DHT22;8378;57.698;11.958;2022-08-05T12:16:35;27.70;99.90
16532;DHT22;8378;57.698;11.958;2022-08-05T12:19:02;27.70;99.90
16532;DHT22;8378;57.698;11.958;2022-08-05T12:21:33;27.70;99.90
16532;DHT22;8378;57.698;11.958;2022-08-05T12:24:03;27.70;99.90
16532;DHT22;8378;57.698;11.958;2022-08-05T12:26:34;27.70;99.90
16532;DHT22;8378;57.698;11.958;2022-08-05T12:29:01;27.70;99.90
16532;DHT22;8378;57.698;11.958;2022-08-05T12:31:27;27.70;99.90
16532;DHT22;8378;57.698;11.958;2022-08-05T12:33:55;27.80;99.90
16532;DHT22;8378;57.698;11.958;2022-08-05T12:36:21;27.80;99.90
16532;DHT22;8378;57.698;11.958;2022-08-05T12:38:47;27.80;99.90
16532;DHT22;8378;57.698;11.958;2022-08-05T12:41:14;27.80;99.90
16532;DHT22;8378;57.698;11.958;2022-08-05T12:44:02;27.80;99.90
16532;DHT22;8378;57.698;11.958;2022-08-05T12:46:31;27.80;99.90
16532;DHT22;8378;57.698;11.958;2022-08-05T12:51:41;27.80;99.90
16532;DHT22;8378;57.698;11.958;2022-08-05T12:54:07;27.90;99.90
16532;DHT22;8378;57.698;11.958;2022-08-05T12:56:40;27.90;99.90
16532;DHT22;8378;57.698;11.958;2022-08-05T12:59:16;27.90;99.90
16532;DHT22;8378;57.698;11.958;2022-08-05T13:01:44;27.90;99.90
16532;DHT22;8378;57.698;11.958;2022-08-05T13:04:11;27.90;99.90
16532;DHT22;8378;57.698;11.958;2022-08-05T13:06:41;27.90;99.90
16532;DHT22;8378;57.698;11.958;2022-08-05T13:09:09;27.90;99.90
16532;DHT22;8378;57.698;11.958;2022-08-05T13:11:39;27.90;99.90
16532;DHT22;8378;57.698;11.958;2022-08-05T13:16:46;28.00;99.90
16532;DHT22;8378;57.698;11.958;2022-08-05T13:19:12;28.00;99.90
16532;DHT22;8378;57.698;11.958;2022-08-05T13:21:39;28.00;99.90
16532;DHT22;8378;57.698;11.958;2022-08-05T13:24:05;28.00;99.90
16532;DHT22;8378;57.698;11.958;2022-08-05T13:26:31;28.00;99.90
16532;DHT22;8378;57.698;11.958;2022-08-05T13:28:57;28.00;99.90
16532;DHT22;8378;57.698;11.958;2022-08-05T13:31:22;28.00;99.90
16532;DHT22;8378;57.698;11.958;2022-08-05T13:33:48;28.00;99.90
16532;DHT22;8378;57.698;11.958;2022-08-05T13:36:14;28.00;99.90
16532;DHT22;8378;57.698;11.958;2022-08-05T13:38:39;28.00;99.90
16532;DHT22;8378;57.698;11.958;2022-08-05T13:41:05;28.00;99.90
16532;DHT22;8378;57.698;11.958;2022-08-05T13:43:31;28.00;99.90
16532;DHT22;8378;57.698;11.958;2022-08-05T13:45:56;28.00;99.90
16532;DHT22;8378;57.698;11.958;2022-08-05T13:48:22;28.00;99.90
16532;DHT22;8378;57.698;11.958;2022-08-05T13:50:48;28.00;99.90
16532;DHT22;8378;57.698;11.958;2022-08-05T13:53:14;28.00;99.90
16532;DHT22;8378;57.698;11.958;2022-08-05T13:55:39;28.00;99.90
16532;DHT22;8378;57.698;11.958;2022-08-05T13:58:05;28.00;99.90
16532;DHT22;8378;57.698;11.958;2022-08-05T14:00:31;28.00;99.90
16532;DHT22;8378;57.698;11.958;2022-08-05T14:02:56;28.00;99.90
16532;DHT22;8378;57.698;11.958;2022-08-05T14:05:22;28.00;99.90
16532;DHT22;8378;57.698;11.958;2022-08-05T14:07:48;28.00;99.90
16532;DHT22;8378;57.698;11.958;2022-08-05T14:10:17;28.00;99.90
16532;DHT22;8378;57.698;11.958;2022-08-05T14:12:43;28.00;99.90
16532;DHT22;8378;57.698;11.958;2022-08-05T14:15:10;28.00;99.90
16532;DHT22;8378;57.698;11.958;2022-08-05T14:17:36;28.00;99.90
16532;DHT22;8378;57.698;11.958;2022-08-05T14:20:03;28.00;99.90
16532;DHT22;8378;57.698;11.958;2022-08-05T14:22:29;28.00;99.90
16532;DHT22;8378;57.698;11.958;2022-08-05T14:24:55;28.00;99.90
16532;DHT22;8378;57.698;11.958;2022-08-05T14:27:20;28.00;99.90
16532;DHT22;8378;57.698;11.958;2022-08-05T14:29:46;28.00;99.90
16532;DHT22;8378;57.698;11.958;2022-08-05T14:32:12;28.00;99.90
16532;DHT22;8378;57.698;11.958;2022-08-05T14:34:38;28.00;99.90
16532;DHT22;8378;57.698;11.958;2022-08-05T14:37:04;28.00;99.90
16532;DHT22;8378;57.698;11.958;2022-08-05T14:39:31;28.00;99.90
16532;DHT22;8378;57.698;11.958;2022-08-05T14:41:57;28.00;99.90
16532;DHT22;8378;57.698;11.958;2022-08-05T14:44:22;28.00;99.90
16532;DHT22;8378;57.698;11.958;2022-08-05T14:46:48;28.00;99.90
16532;DHT22;8378;57.698;11.958;2022-08-05T14:49:13;28.00;99.90
16532;DHT22;8378;57.698;11.958;2022-08-05T14:51:39;28.00;99.90
16532;DHT22;8378;57.698;11.958;2022-08-05T14:54:06;28.00;99.90
16532;DHT22;8378;57.698;11.958;2022-08-05T14:56:32;28.00;99.90
16532;DHT22;8378;57.698;11.958;2022-08-05T14:58:58;28.00;99.90
16532;DHT22;8378;57.698;11.958;2022-08-05T15:01:24;28.00;99.90
16532;DHT22;8378;57.698;11.958;2022-08-05T15:03:50;28.00;99.90
16532;DHT22;8378;57.698;11.958;2022-08-05T15:06:15;28.00;99.90
16532;DHT22;8378;57.698;11.958;2022-08-05T15:08:42;28.00;99.90
16532;DHT22;8378;57.698;11.958;2022-08-05T15:11:08;28.00;99.90
16532;DHT22;8378;57.698;11.958;2022-08-05T15:13:34;28.00;99.90
16532;DHT22;8378;57.698;11.958;2022-08-05T15:16:00;28.00;99.90
16532;DHT22;8378;57.698;11.958;2022-08-05T15:18:26;28.00;99.90
16532;DHT22;8378;57.698;11.958;2022-08-05T15:20:52;28.00;99.90
16532;DHT22;8378;57.698;11.958;2022-08-05T15:23:17;27.90;99.90
16532;DHT22;8378;57.698;11.958;2022-08-05T15:25:43;27.90;99.90
16532;DHT22;8378;57.698;11.958;2022-08-05T15:28:09;27.90;99.90
16532;DHT22;8378;57.698;11.958;2022-08-05T15:30:35;27.90;99.90
16532;DHT22;8378;57.698;11.958;2022-08-05T15:33:02;27.90;99.90
16532;DHT22;8378;57.698;11.958;2022-08-05T15:35:27;27.90;99.90
16532;DHT22;8378;57.698;11.958;2022-08-05T15:37:53;27.90;99.90
16532;DHT22;8378;57.698;11.958;2022-08-05T15:40:19;27.90;99.90
16532;DHT22;8378;57.698;11.958;2022-08-05T15:42:45;27.90;99.90
16532;DHT22;8378;57.698;11.958;2022-08-05T15:45:11;27.80;99.90
16532;DHT22;8378;57.698;11.958;2022-08-05T15:47:37;27.90;99.90
16532;DHT22;8378;57.698;11.958;2022-08-05T15:50:05;27.80;99.90
16532;DHT22;8378;57.698;11.958;2022-08-05T15:52:31;27.80;99.90
16532;DHT22;8378;57.698;11.958;2022-08-05T15:55:00;27.90;99.90
16532;DHT22;8378;57.698;11.958;2022-08-05T15:57:25;27.80;99.90
16532;DHT22;8378;57.698;11.958;2022-08-05T15:59:51;27.80;99.90
16532;DHT22;8378;57.698;11.958;2022-08-05T16:02:16;27.80;99.90
16532;DHT22;8378;57.698;11.958;2022-08-05T16:04:43;27.80;99.90